sensor_id;sensor_type;location;lat;lon;timestamp;temperature;humidity
49711;DHT22;35602;44.534;18.696;2023-04-25T00:00:18;22.00;59.40
49711;DHT22;35602;44.534;18.696;2023-04-25T00:05:18;22.00;60.20
49711;DHT22;35602;44.534;18.696;2023-04-25T00:10:20;22.00;59.50
49711;DHT22;35602;44.534;18.696;2023-04-25T00:15:20;22.00;59.30
49711;DHT22;35602;44.534;18.696;2023-04-25T00:20:21;22.00;59.40
49711;DHT22;35602;44.534;18.696;2023-04-25T00:25:23;22.00;59.40
49711;DHT22;35602;44.534;18.696;2023-04-25T00:30:24;22.00;59.40
49711;DHT22;35602;44.534;18.696;2023-04-25T00:35:24;22.00;59.40
49711;DHT22;35602;44.534;18.696;2023-04-25T00:40:26;22.00;59.50
49711;DHT22;35602;44.534;18.696;2023-04-25T00:45:27;22.00;59.40
49711;DHT22;35602;44.534;18.696;2023-04-25T00:50:28;22.00;59.40
49711;DHT22;35602;44.534;18.696;2023-04-25T00:55:29;22.00;59.50
49711;DHT22;35602;44.534;18.696;2023-04-25T01:00:31;22.00;59.50
49711;DHT22;35602;44.534;18.696;2023-04-25T01:05:32;22.00;59.50
49711;DHT22;35602;44.534;18.696;2023-04-25T01:10:33;22.00;59.40
49711;DHT22;35602;44.534;18.696;2023-04-25T01:15:33;22.00;59.40
49711;DHT22;35602;44.534;18.696;2023-04-25T01:20:36;22.00;59.50
49711;DHT22;35602;44.534;18.696;2023-04-25T01:25:37;22.00;59.50
49711;DHT22;35602;44.534;18.696;2023-04-25T01:30:38;22.00;59.50
49711;DHT22;35602;44.534;18.696;2023-04-25T01:35:39;22.00;59.50
49711;DHT22;35602;44.534;18.696;2023-04-25T01:40:40;22.00;59.50
49711;DHT22;35602;44.534;18.696;2023-04-25T01:45:41;22.00;59.40
49711;DHT22;35602;44.534;18.696;2023-04-25T01:50:42;22.00;59.50
49711;DHT22;35602;44.534;18.696;2023-04-25T01:55:43;22.00;59.50
49711;DHT22;35602;44.534;18.696;2023-04-25T02:00:43;22.00;59.40
49711;DHT22;35602;44.534;18.696;2023-04-25T02:05:45;22.00;59.50
49711;DHT22;35602;44.534;18.696;2023-04-25T02:10:45;22.00;59.40
49711;DHT22;35602;44.534;18.696;2023-04-25T02:15:46;22.00;59.40
49711;DHT22;35602;44.534;18.696;2023-04-25T02:20:47;22.00;59.40
49711;DHT22;35602;44.534;18.696;2023-04-25T02:25:48;22.00;59.40
49711;DHT22;35602;44.534;18.696;2023-04-25T02:30:48;22.00;59.50
49711;DHT22;35602;44.534;18.696;2023-04-25T02:35:49;22.00;59.40
49711;DHT22;35602;44.534;18.696;2023-04-25T02:40:50;22.00;59.40
49711;DHT22;35602;44.534;18.696;2023-04-25T02:45:50;22.00;59.30
49711;DHT22;35602;44.534;18.696;2023-04-25T02:50:51;22.00;59.30
49711;DHT22;35602;44.534;18.696;2023-04-25T02:55:52;22.00;59.40
49711;DHT22;35602;44.534;18.696;2023-04-25T03:00:53;22.00;59.30
49711;DHT22;35602;44.534;18.696;2023-04-25T03:05:54;22.00;59.30
49711;DHT22;35602;44.534;18.696;2023-04-25T03:10:54;22.00;59.40
49711;DHT22;35602;44.534;18.696;2023-04-25T03:15:56;22.00;59.50
49711;DHT22;35602;44.534;18.696;2023-04-25T03:20:56;22.00;59.40
49711;DHT22;35602;44.534;18.696;2023-04-25T03:25:57;22.00;59.40
49711;DHT22;35602;44.534;18.696;2023-04-25T03:30:57;22.00;59.40
49711;DHT22;35602;44.534;18.696;2023-04-25T03:35:58;22.00;59.30
49711;DHT22;35602;44.534;18.696;2023-04-25T03:40:59;22.00;59.30
49711;DHT22;35602;44.534;18.696;2023-04-25T03:46:00;22.00;59.40
49711;DHT22;35602;44.534;18.696;2023-04-25T03:51:01;22.00;59.40
49711;DHT22;35602;44.534;18.696;2023-04-25T03:56:02;22.00;59.30
49711;DHT22;35602;44.534;18.696;2023-04-25T04:01:02;22.00;59.30
49711;DHT22;35602;44.534;18.696;2023-04-25T04:06:07;22.00;59.30
49711;DHT22;35602;44.534;18.696;2023-04-25T04:11:09;22.00;59.30
49711;DHT22;35602;44.534;18.696;2023-04-25T04:16:09;22.00;59.20
49711;DHT22;35602;44.534;18.696;2023-04-25T04:21:10;22.00;59.30
49711;DHT22;35602;44.534;18.696;2023-04-25T04:26:11;21.90;59.20
49711;DHT22;35602;44.534;18.696;2023-04-25T04:31:14;22.00;59.30
49711;DHT22;35602;44.534;18.696;2023-04-25T04:36:16;22.00;59.40
49711;DHT22;35602;44.534;18.696;2023-04-25T04:41:20;22.00;59.50
49711;DHT22;35602;44.534;18.696;2023-04-25T04:46:20;22.00;59.50
49711;DHT22;35602;44.534;18.696;2023-04-25T04:51:21;22.00;59.50
49711;DHT22;35602;44.534;18.696;2023-04-25T04:56:22;22.00;59.50
49711;DHT22;35602;44.534;18.696;2023-04-25T05:01:24;22.00;59.90
49711;DHT22;35602;44.534;18.696;2023-04-25T05:06:25;21.90;59.40
49711;DHT22;35602;44.534;18.696;2023-04-25T05:11:29;22.00;59.50
49711;DHT22;35602;44.534;18.696;2023-04-25T05:16:30;21.90;59.30
49711;DHT22;35602;44.534;18.696;2023-04-25T05:21:30;21.90;59.40
49711;DHT22;35602;44.534;18.696;2023-04-25T05:26:31;21.90;59.40
49711;DHT22;35602;44.534;18.696;2023-04-25T05:31:32;21.90;59.20
49711;DHT22;35602;44.534;18.696;2023-04-25T05:36:33;21.90;59.30
49711;DHT22;35602;44.534;18.696;2023-04-25T05:41:33;21.90;59.20
49711;DHT22;35602;44.534;18.696;2023-04-25T05:46:34;21.90;59.10
49711;DHT22;35602;44.534;18.696;2023-04-25T05:51:35;21.90;59.20
49711;DHT22;35602;44.534;18.696;2023-04-25T05:56:36;21.90;59.10
49711;DHT22;35602;44.534;18.696;2023-04-25T06:01:36;21.90;59.10
49711;DHT22;35602;44.534;18.696;2023-04-25T06:06:37;21.90;59.10
49711;DHT22;35602;44.534;18.696;2023-04-25T06:11:37;21.90;59.10
49711;DHT22;35602;44.534;18.696;2023-04-25T06:16:38;21.90;59.00
49711;DHT22;35602;44.534;18.696;2023-04-25T06:21:39;21.90;59.00
49711;DHT22;35602;44.534;18.696;2023-04-25T06:26:39;21.90;59.00
49711;DHT22;35602;44.534;18.696;2023-04-25T06:31:40;21.90;58.90
49711;DHT22;35602;44.534;18.696;2023-04-25T06:36:42;21.90;59.00
49711;DHT22;35602;44.534;18.696;2023-04-25T06:41:44;21.90;58.90
49711;DHT22;35602;44.534;18.696;2023-04-25T06:46:45;21.90;58.80
49711;DHT22;35602;44.534;18.696;2023-04-25T06:51:45;21.90;58.90
49711;DHT22;35602;44.534;18.696;2023-04-25T06:56:46;21.90;58.80
49711;DHT22;35602;44.534;18.696;2023-04-25T07:01:46;21.90;58.90
49711;DHT22;35602;44.534;18.696;2023-04-25T07:06:47;21.90;58.80
49711;DHT22;35602;44.534;18.696;2023-04-25T07:11:48;21.90;58.80
49711;DHT22;35602;44.534;18.696;2023-04-25T07:16:49;21.90;58.70
49711;DHT22;35602;44.534;18.696;2023-04-25T07:21:50;21.90;58.80
49711;DHT22;35602;44.534;18.696;2023-04-25T07:26:50;21.90;58.80
49711;DHT22;35602;44.534;18.696;2023-04-25T07:31:51;21.90;58.70
49711;DHT22;35602;44.534;18.696;2023-04-25T07:36:52;21.90;58.70
49711;DHT22;35602;44.534;18.696;2023-04-25T07:41:53;21.90;58.60
49711;DHT22;35602;44.534;18.696;2023-04-25T07:46:53;21.90;58.60
49711;DHT22;35602;44.534;18.696;2023-04-25T07:51:54;21.90;58.60
49711;DHT22;35602;44.534;18.696;2023-04-25T07:56:55;21.90;58.60
49711;DHT22;35602;44.534;18.696;2023-04-25T08:01:56;21.90;58.50
49711;DHT22;35602;44.534;18.696;2023-04-25T08:06:57;21.90;58.60
49711;DHT22;35602;44.534;18.696;2023-04-25T08:11:58;21.90;58.50
49711;DHT22;35602;44.534;18.696;2023-04-25T08:16:58;22.00;58.60
49711;DHT22;35602;44.534;18.696;2023-04-25T08:21:59;22.10;58.60
49711;DHT22;35602;44.534;18.696;2023-04-25T08:27:00;22.10;58.60
49711;DHT22;35602;44.534;18.696;2023-04-25T08:32:00;22.10;58.50
49711;DHT22;35602;44.534;18.696;2023-04-25T08:37:01;22.20;58.60
49711;DHT22;35602;44.534;18.696;2023-04-25T08:42:05;22.20;58.50
49711;DHT22;35602;44.534;18.696;2023-04-25T08:47:09;22.20;58.50
49711;DHT22;35602;44.534;18.696;2023-04-25T08:52:10;22.30;58.50
49711;DHT22;35602;44.534;18.696;2023-04-25T08:57:14;22.30;58.50
49711;DHT22;35602;44.534;18.696;2023-04-25T09:02:15;22.30;58.60
49711;DHT22;35602;44.534;18.696;2023-04-25T09:07:18;22.40;58.70
49711;DHT22;35602;44.534;18.696;2023-04-25T09:12:21;22.40;58.70
49711;DHT22;35602;44.534;18.696;2023-04-25T09:17:25;22.40;58.70
49711;DHT22;35602;44.534;18.696;2023-04-25T09:22:26;22.40;58.70
49711;DHT22;35602;44.534;18.696;2023-04-25T09:27:27;22.40;58.70
49711;DHT22;35602;44.534;18.696;2023-04-25T09:32:27;22.40;58.70
49711;DHT22;35602;44.534;18.696;2023-04-25T09:37:29;22.40;58.50
49711;DHT22;35602;44.534;18.696;2023-04-25T09:42:29;22.40;58.40
49711;DHT22;35602;44.534;18.696;2023-04-25T09:47:32;22.40;58.40
49711;DHT22;35602;44.534;18.696;2023-04-25T09:52:38;22.40;58.30
49711;DHT22;35602;44.534;18.696;2023-04-25T09:57:38;22.40;58.30
49711;DHT22;35602;44.534;18.696;2023-04-25T10:02:40;22.40;58.90
49711;DHT22;35602;44.534;18.696;2023-04-25T10:07:45;22.50;58.20
49711;DHT22;35602;44.534;18.696;2023-04-25T10:12:45;22.50;58.30
49711;DHT22;35602;44.534;18.696;2023-04-25T10:17:46;22.50;58.40
49711;DHT22;35602;44.534;18.696;2023-04-25T10:22:50;22.50;58.40
49711;DHT22;35602;44.534;18.696;2023-04-25T10:27:54;22.40;58.30
49711;DHT22;35602;44.534;18.696;2023-04-25T10:32:58;22.50;58.80
49711;DHT22;35602;44.534;18.696;2023-04-25T10:48:44;22.40;58.40
49711;DHT22;35602;44.534;18.696;2023-04-25T10:53:46;22.40;58.40
49711;DHT22;35602;44.534;18.696;2023-04-25T10:58:47;22.40;58.40
49711;DHT22;35602;44.534;18.696;2023-04-25T11:03:48;22.40;58.40
49711;DHT22;35602;44.534;18.696;2023-04-25T11:08:50;22.30;58.90
49711;DHT22;35602;44.534;18.696;2023-04-25T11:13:51;22.30;58.40
49711;DHT22;35602;44.534;18.696;2023-04-25T11:18:52;22.30;58.40
49711;DHT22;35602;44.534;18.696;2023-04-25T11:23:53;22.30;58.40
49711;DHT22;35602;44.534;18.696;2023-04-25T11:28:57;22.30;58.50
49711;DHT22;35602;44.534;18.696;2023-04-25T11:33:59;22.20;58.30
49711;DHT22;35602;44.534;18.696;2023-04-25T11:39:00;22.20;58.30
49711;DHT22;35602;44.534;18.696;2023-04-25T11:44:04;22.20;58.30
49711;DHT22;35602;44.534;18.696;2023-04-25T11:49:05;22.20;58.30
49711;DHT22;35602;44.534;18.696;2023-04-25T11:54:06;22.20;58.00
49711;DHT22;35602;44.534;18.696;2023-04-25T11:59:08;22.20;58.10
49711;DHT22;35602;44.534;18.696;2023-04-25T12:04:15;22.20;58.10
49711;DHT22;35602;44.534;18.696;2023-04-25T12:09:17;22.20;58.10
49711;DHT22;35602;44.534;18.696;2023-04-25T12:14:28;22.20;58.00
49711;DHT22;35602;44.534;18.696;2023-04-25T12:19:34;22.20;58.00
49711;DHT22;35602;44.534;18.696;2023-04-25T12:24:35;22.30;58.40
49711;DHT22;35602;44.534;18.696;2023-04-25T12:29:36;22.40;58.70
49711;DHT22;35602;44.534;18.696;2023-04-25T12:34:37;22.40;58.80
49711;DHT22;35602;44.534;18.696;2023-04-25T12:39:38;22.40;58.80
49711;DHT22;35602;44.534;18.696;2023-04-25T12:44:39;22.40;59.00
49711;DHT22;35602;44.534;18.696;2023-04-25T12:49:40;22.50;59.00
49711;DHT22;35602;44.534;18.696;2023-04-25T12:54:43;22.50;59.10
49711;DHT22;35602;44.534;18.696;2023-04-25T12:59:44;22.50;59.20
49711;DHT22;35602;44.534;18.696;2023-04-25T13:04:45;22.50;59.20
49711;DHT22;35602;44.534;18.696;2023-04-25T13:09:48;22.50;59.20
49711;DHT22;35602;44.534;18.696;2023-04-25T13:14:49;22.60;59.50
49711;DHT22;35602;44.534;18.696;2023-04-25T13:19:50;22.60;59.50
49711;DHT22;35602;44.534;18.696;2023-04-25T13:24:51;22.60;59.50
49711;DHT22;35602;44.534;18.696;2023-04-25T13:29:51;22.60;59.60
49711;DHT22;35602;44.534;18.696;2023-04-25T13:34:52;22.60;59.60
49711;DHT22;35602;44.534;18.696;2023-04-25T13:39:53;22.60;59.60
49711;DHT22;35602;44.534;18.696;2023-04-25T13:44:55;22.70;59.60
49711;DHT22;35602;44.534;18.696;2023-04-25T13:49:58;22.70;60.30
49711;DHT22;35602;44.534;18.696;2023-04-25T13:54:59;22.70;59.60
49711;DHT22;35602;44.534;18.696;2023-04-25T14:00:04;22.70;59.70
49711;DHT22;35602;44.534;18.696;2023-04-25T14:05:09;22.70;59.70
49711;DHT22;35602;44.534;18.696;2023-04-25T14:10:09;22.70;59.70
49711;DHT22;35602;44.534;18.696;2023-04-25T14:15:10;22.70;59.70
49711;DHT22;35602;44.534;18.696;2023-04-25T14:20:11;22.70;59.60
49711;DHT22;35602;44.534;18.696;2023-04-25T14:25:12;22.70;59.60
49711;DHT22;35602;44.534;18.696;2023-04-25T14:30:13;22.70;59.60
49711;DHT22;35602;44.534;18.696;2023-04-25T14:35:13;22.70;59.60
49711;DHT22;35602;44.534;18.696;2023-04-25T14:40:14;22.70;59.40
49711;DHT22;35602;44.534;18.696;2023-04-25T14:45:17;22.60;59.30
49711;DHT22;35602;44.534;18.696;2023-04-25T14:50:17;22.60;59.40
49711;DHT22;35602;44.534;18.696;2023-04-25T14:55:18;22.60;59.30
49711;DHT22;35602;44.534;18.696;2023-04-25T15:00:19;22.60;59.20
49711;DHT22;35602;44.534;18.696;2023-04-25T15:05:21;22.60;59.30
49711;DHT22;35602;44.534;18.696;2023-04-25T15:10:21;22.50;59.10
49711;DHT22;35602;44.534;18.696;2023-04-25T15:15:22;22.50;59.20
49711;DHT22;35602;44.534;18.696;2023-04-25T15:20:23;22.50;59.10
49711;DHT22;35602;44.534;18.696;2023-04-25T15:25:27;22.50;59.10
49711;DHT22;35602;44.534;18.696;2023-04-25T15:30:28;22.50;59.10
49711;DHT22;35602;44.534;18.696;2023-04-25T15:35:29;22.50;59.10
49711;DHT22;35602;44.534;18.696;2023-04-25T15:40:30;22.50;59.20
49711;DHT22;35602;44.534;18.696;2023-04-25T15:45:30;22.50;59.10
49711;DHT22;35602;44.534;18.696;2023-04-25T15:50:32;22.40;59.00
49711;DHT22;35602;44.534;18.696;2023-04-25T15:55:35;22.40;59.00
49711;DHT22;35602;44.534;18.696;2023-04-25T16:00:36;22.40;58.90
49711;DHT22;35602;44.534;18.696;2023-04-25T16:05:37;22.40;58.90
49711;DHT22;35602;44.534;18.696;2023-04-25T16:10:37;22.40;58.90
49711;DHT22;35602;44.534;18.696;2023-04-25T16:15:38;22.40;58.80
49711;DHT22;35602;44.534;18.696;2023-04-25T16:20:39;22.40;58.80
49711;DHT22;35602;44.534;18.696;2023-04-25T16:25:40;22.40;58.80
49711;DHT22;35602;44.534;18.696;2023-04-25T16:30:42;22.40;58.80
49711;DHT22;35602;44.534;18.696;2023-04-25T16:35:43;22.40;58.70
49711;DHT22;35602;44.534;18.696;2023-04-25T16:40:43;22.40;58.70
49711;DHT22;35602;44.534;18.696;2023-04-25T16:45:44;22.40;58.70
49711;DHT22;35602;44.534;18.696;2023-04-25T16:50:45;22.40;58.70
49711;DHT22;35602;44.534;18.696;2023-04-25T16:55:45;22.40;58.70
49711;DHT22;35602;44.534;18.696;2023-04-25T17:00:46;22.40;58.70
49711;DHT22;35602;44.534;18.696;2023-04-25T17:05:49;22.40;58.70
49711;DHT22;35602;44.534;18.696;2023-04-25T17:10:52;22.40;58.70
49711;DHT22;35602;44.534;18.696;2023-04-25T17:15:53;22.40;58.60
49711;DHT22;35602;44.534;18.696;2023-04-25T17:20:54;22.40;58.60
49711;DHT22;35602;44.534;18.696;2023-04-25T17:25:55;22.40;58.60
49711;DHT22;35602;44.534;18.696;2023-04-25T17:30:55;22.40;58.50
49711;DHT22;35602;44.534;18.696;2023-04-25T17:35:56;22.40;58.50
49711;DHT22;35602;44.534;18.696;2023-04-25T17:40:57;22.40;58.50
49711;DHT22;35602;44.534;18.696;2023-04-25T17:45:58;22.40;58.50
49711;DHT22;35602;44.534;18.696;2023-04-25T17:50:59;22.30;58.40
49711;DHT22;35602;44.534;18.696;2023-04-25T17:55:59;22.30;58.40
49711;DHT22;35602;44.534;18.696;2023-04-25T18:01:00;22.40;58.40
49711;DHT22;35602;44.534;18.696;2023-04-25T18:06:03;22.40;58.30
49711;DHT22;35602;44.534;18.696;2023-04-25T18:11:04;22.30;58.30
49711;DHT22;35602;44.534;18.696;2023-04-25T18:16:06;22.30;58.20
49711;DHT22;35602;44.534;18.696;2023-04-25T18:21:06;22.30;58.20
49711;DHT22;35602;44.534;18.696;2023-04-25T18:26:08;22.30;58.20
49711;DHT22;35602;44.534;18.696;2023-04-25T18:31:09;22.40;58.20
49711;DHT22;35602;44.534;18.696;2023-04-25T18:36:10;22.30;58.20
49711;DHT22;35602;44.534;18.696;2023-04-25T18:41:11;22.30;58.10
49711;DHT22;35602;44.534;18.696;2023-04-25T18:46:12;22.30;58.10
49711;DHT22;35602;44.534;18.696;2023-04-25T18:51:13;22.30;58.10
49711;DHT22;35602;44.534;18.696;2023-04-25T18:56:13;22.30;58.10
49711;DHT22;35602;44.534;18.696;2023-04-25T19:01:14;22.30;58.10
49711;DHT22;35602;44.534;18.696;2023-04-25T19:06:15;22.30;58.10
49711;DHT22;35602;44.534;18.696;2023-04-25T19:11:15;22.30;58.10
49711;DHT22;35602;44.534;18.696;2023-04-25T19:16:16;22.30;58.10
49711;DHT22;35602;44.534;18.696;2023-04-25T19:21:17;22.30;58.00
49711;DHT22;35602;44.534;18.696;2023-04-25T19:26:18;22.30;57.90
49711;DHT22;35602;44.534;18.696;2023-04-25T19:31:20;22.30;57.90
49711;DHT22;35602;44.534;18.696;2023-04-25T19:36:20;22.30;57.90
49711;DHT22;35602;44.534;18.696;2023-04-25T19:41:22;22.30;57.90
49711;DHT22;35602;44.534;18.696;2023-04-25T19:46:22;22.30;57.80
49711;DHT22;35602;44.534;18.696;2023-04-25T19:51:24;22.30;57.80
49711;DHT22;35602;44.534;18.696;2023-04-25T19:56:26;22.30;57.80
49711;DHT22;35602;44.534;18.696;2023-04-25T20:01:27;22.30;57.70
49711;DHT22;35602;44.534;18.696;2023-04-25T20:06:27;22.30;57.70
49711;DHT22;35602;44.534;18.696;2023-04-25T20:11:28;22.30;57.70
49711;DHT22;35602;44.534;18.696;2023-04-25T20:16:29;22.30;57.70
49711;DHT22;35602;44.534;18.696;2023-04-25T20:21:30;22.30;57.70
49711;DHT22;35602;44.534;18.696;2023-04-25T20:26:33;22.30;57.60
49711;DHT22;35602;44.534;18.696;2023-04-25T20:31:34;22.20;57.50
49711;DHT22;35602;44.534;18.696;2023-04-25T20:36:36;22.30;57.50
49711;DHT22;35602;44.534;18.696;2023-04-25T20:41:36;22.30;57.50
49711;DHT22;35602;44.534;18.696;2023-04-25T20:46:37;22.30;57.60
49711;DHT22;35602;44.534;18.696;2023-04-25T20:51:38;22.30;57.50
49711;DHT22;35602;44.534;18.696;2023-04-25T20:56:39;22.20;57.40
49711;DHT22;35602;44.534;18.696;2023-04-25T21:01:39;22.30;57.40
49711;DHT22;35602;44.534;18.696;2023-04-25T21:06:40;22.30;57.40
49711;DHT22;35602;44.534;18.696;2023-04-25T21:11:43;22.30;57.40
49711;DHT22;35602;44.534;18.696;2023-04-25T21:16:45;22.30;57.30
49711;DHT22;35602;44.534;18.696;2023-04-25T21:21:46;22.30;57.30
49711;DHT22;35602;44.534;18.696;2023-04-25T21:26:46;22.30;57.30
49711;DHT22;35602;44.534;18.696;2023-04-25T21:31:47;22.30;57.40
49711;DHT22;35602;44.534;18.696;2023-04-25T21:36:48;22.30;57.30
49711;DHT22;35602;44.534;18.696;2023-04-25T21:41:48;22.30;57.20
49711;DHT22;35602;44.534;18.696;2023-04-25T21:46:49;22.30;57.30
49711;DHT22;35602;44.534;18.696;2023-04-25T21:51:50;22.30;57.20
49711;DHT22;35602;44.534;18.696;2023-04-25T21:56:50;22.30;57.20
49711;DHT22;35602;44.534;18.696;2023-04-25T22:01:51;22.30;57.30
49711;DHT22;35602;44.534;18.696;2023-04-25T22:06:52;22.30;57.20
49711;DHT22;35602;44.534;18.696;2023-04-25T22:11:53;22.30;57.20
49711;DHT22;35602;44.534;18.696;2023-04-25T22:16:54;22.30;57.20
49711;DHT22;35602;44.534;18.696;2023-04-25T22:21:55;22.30;57.20
49711;DHT22;35602;44.534;18.696;2023-04-25T22:26:56;22.20;57.10
49711;DHT22;35602;44.534;18.696;2023-04-25T22:31:57;22.30;57.20
49711;DHT22;35602;44.534;18.696;2023-04-25T22:36:57;22.20;57.20
49711;DHT22;35602;44.534;18.696;2023-04-25T22:41:58;22.30;57.10
49711;DHT22;35602;44.534;18.696;2023-04-25T22:46:59;22.30;57.10
49711;DHT22;35602;44.534;18.696;2023-04-25T22:52:00;22.30;57.10
49711;DHT22;35602;44.534;18.696;2023-04-25T22:57:06;22.30;57.10
49711;DHT22;35602;44.534;18.696;2023-04-25T23:02:07;22.20;57.10
49711;DHT22;35602;44.534;18.696;2023-04-25T23:07:08;22.30;57.10
49711;DHT22;35602;44.534;18.696;2023-04-25T23:12:09;22.30;57.10
49711;DHT22;35602;44.534;18.696;2023-04-25T23:17:10;22.30;57.10
49711;DHT22;35602;44.534;18.696;2023-04-25T23:22:11;22.20;57.00
49711;DHT22;35602;44.534;18.696;2023-04-25T23:27:12;22.30;57.10
49711;DHT22;35602;44.534;18.696;2023-04-25T23:32:13;22.20;57.00
49711;DHT22;35602;44.534;18.696;2023-04-25T23:37:13;22.20;57.00
49711;DHT22;35602;44.534;18.696;2023-04-25T23:42:14;22.30;57.10
49711;DHT22;35602;44.534;18.696;2023-04-25T23:47:15;22.20;57.00
49711;DHT22;35602;44.534;18.696;2023-04-25T23:52:18;22.30;57.60
49711;DHT22;35602;44.534;18.696;2023-04-25T23:57:18;22.20;56.90
